Terminal Aerodrome Forecast
Issued by NWS Sterling, VA

Home | Current Version | Previous Version | Text Only | Print | Product List | Glossary On
Versions: 1 2 3 4 5 6 7 8 9 10 11 12 13 14 15 16 17 18 19 20
000
FTUS41 KLWX 281720
TAFDCA
TAF
KDCA 281720Z 2818/2918 20004KT P6SM FEW250
     FM282200 17007KT P6SM FEW250
     FM290500 18006KT P6SM BKN110
      TEMPO 2907/2911 BKN050
     FM291100 22008KT P6SM BKN250
     FM291500 23010KT P6SM FEW150=

USA.gov is the U.S. government's official web portal to all federal, state and local government web resources and services.